createdAt,value
2017-09-23T00:02:02.512Z,20.10
2017-09-23T00:04:30.177Z,18.80
2017-09-23T00:06:57.826Z,18.70
2017-09-23T00:09:25.447Z,20.43
2017-09-23T00:11:53.881Z,20.83
2017-09-23T00:14:21.507Z,21.57
2017-09-23T00:16:49.138Z,26.07
2017-09-23T00:19:17.617Z,22.10
2017-09-23T00:21:46.047Z,25.70
2017-09-23T00:24:13.703Z,24.37
2017-09-23T00:26:41.311Z,25.60
2017-09-23T00:29:09.840Z,21.17
2017-09-23T00:31:37.462Z,19.97
2017-09-23T00:34:05.105Z,24.63
2017-09-23T00:36:32.828Z,19.40
2017-09-23T00:39:00.464Z,21.50
2017-09-23T00:41:28.171Z,20.07
2017-09-23T00:43:55.862Z,27.30
2017-09-23T00:46:23.655Z,25.07
2017-09-23T00:48:51.279Z,24.43
2017-09-23T00:51:19.735Z,22.83
2017-09-23T00:53:47.420Z,26.73
2017-09-23T00:56:15.091Z,22.50
2017-09-23T00:58:42.751Z,18.60
2017-09-23T01:01:10.400Z,23.90
2017-09-23T01:03:38.131Z,22.47
2017-09-23T01:06:05.743Z,26.33
2017-09-23T01:08:33.375Z,22.70
2017-09-23T01:11:01.839Z,19.53
2017-09-23T01:13:29.465Z,21.60
2017-09-23T01:15:57.143Z,21.63
2017-09-23T01:18:24.787Z,25.27
2017-09-23T01:20:52.499Z,23.63
2017-09-23T01:23:20.920Z,20.57
2017-09-23T01:25:48.627Z,21.40
2017-09-23T01:28:17.091Z,24.20
2017-09-23T01:30:44.846Z,21.63
2017-09-23T01:33:12.536Z,24.27
2017-09-23T01:35:40.951Z,23.13
2017-09-23T01:38:08.709Z,26.03
2017-09-23T01:40:36.348Z,25.10
2017-09-23T01:43:04.795Z,21.40
2017-09-23T01:45:32.456Z,18.10
2017-09-23T01:48:00.077Z,19.70
2017-09-23T01:50:27.723Z,25.17
2017-09-23T01:52:55.374Z,22.63
2017-09-23T01:55:23.102Z,22.60
2017-09-23T01:57:50.768Z,21.87
2017-09-23T02:00:18.389Z,19.23
2017-09-23T02:02:46.020Z,17.50
2017-09-23T02:05:13.637Z,20.33
2017-09-23T02:07:41.296Z,19.53
2017-09-23T02:10:08.922Z,22.03
2017-09-23T02:12:36.583Z,20.67
2017-09-23T02:15:04.208Z,17.83
2017-09-23T02:17:32.599Z,17.30
2017-09-23T02:20:00.253Z,20.50
2017-09-23T02:22:27.858Z,22.20
2017-09-23T02:24:55.503Z,19.20
2017-09-23T02:27:23.120Z,17.00
2017-09-23T02:29:51.559Z,20.10
2017-09-23T02:32:19.193Z,20.00
2017-09-23T02:34:46.800Z,16.27
2017-09-23T02:37:14.456Z,15.30
2017-09-23T02:39:42.902Z,15.97
2017-09-23T02:42:10.539Z,15.70
2017-09-23T02:44:38.174Z,16.43
2017-09-23T02:47:06.616Z,14.77
2017-09-23T02:49:34.233Z,17.47
2017-09-23T02:52:01.857Z,19.27
2017-09-23T02:54:30.295Z,14.87
2017-09-23T02:56:57.906Z,16.90
2017-09-23T02:59:26.303Z,17.40
2017-09-23T03:01:53.920Z,18.33
2017-09-23T03:04:21.671Z,17.97
2017-09-23T03:06:49.288Z,16.63
2017-09-23T03:09:16.893Z,20.63
2017-09-23T03:11:44.539Z,13.90
2017-09-23T03:14:12.139Z,19.60
2017-09-23T03:16:40.567Z,14.10
2017-09-23T03:19:08.188Z,14.40
2017-09-23T03:21:35.868Z,16.30
2017-09-23T03:24:03.495Z,15.07
2017-09-23T03:26:31.872Z,15.13
2017-09-23T03:29:00.284Z,15.63
2017-09-23T03:31:27.908Z,14.90
2017-09-23T03:33:56.325Z,16.57
2017-09-23T03:36:23.939Z,15.03
2017-09-23T03:38:52.423Z,15.37
2017-09-23T03:41:20.820Z,22.67
2017-09-23T03:43:48.447Z,13.00
2017-09-23T03:46:16.107Z,16.67
2017-09-23T03:48:43.734Z,21.90
2017-09-23T03:51:11.380Z,17.50
2017-09-23T03:53:39.009Z,13.07
